createdAt,value
2023-01-31T00:02:20.793Z,2.76
2023-01-31T00:04:52.336Z,2.76
2023-01-31T00:07:20.088Z,2.77
2023-01-31T00:09:48.100Z,2.77
2023-01-31T00:12:16.016Z,2.78
2023-01-31T00:14:44.012Z,2.78
2023-01-31T00:17:12.256Z,2.80
2023-01-31T00:19:40.004Z,2.81
2023-01-31T00:22:07.977Z,2.82
2023-01-31T00:24:36.059Z,2.82
2023-01-31T00:27:04.336Z,2.82
2023-01-31T00:29:32.447Z,2.83
2023-01-31T00:32:00.618Z,2.84
2023-01-31T00:34:28.547Z,2.84
2023-01-31T00:36:57.043Z,2.85
2023-01-31T00:39:25.003Z,2.85
2023-01-31T00:41:53.069Z,2.86
2023-01-31T00:44:20.902Z,2.88
2023-01-31T00:46:49.546Z,2.89
2023-01-31T00:49:17.813Z,2.90
2023-01-31T00:51:45.687Z,2.91
2023-01-31T00:54:13.624Z,2.91
2023-01-31T00:56:41.565Z,2.91
2023-01-31T00:59:09.654Z,2.89
2023-01-31T01:01:38.497Z,2.87
2023-01-31T01:04:07.353Z,2.86
2023-01-31T01:06:39.916Z,2.84
2023-01-31T01:09:07.807Z,2.82
2023-01-31T01:11:36.865Z,2.81
2023-01-31T01:14:04.869Z,2.80
2023-01-31T01:16:36.830Z,2.79
2023-01-31T01:19:07.241Z,2.78
2023-01-31T01:21:39.590Z,2.76
2023-01-31T01:24:17.647Z,2.75
2023-01-31T01:26:46.986Z,2.73
2023-01-31T01:29:15.339Z,2.71
2023-01-31T01:31:44.456Z,2.70
2023-01-31T01:34:15.226Z,2.69
2023-01-31T01:36:47.552Z,2.68
2023-01-31T01:39:17.157Z,2.68
2023-01-31T01:41:46.410Z,2.67
2023-01-31T01:44:53.292Z,2.65
2023-01-31T01:47:42.698Z,2.63
2023-01-31T01:50:17.275Z,2.60
2023-01-31T01:52:50.585Z,2.60
2023-01-31T01:55:42.533Z,2.60
2023-01-31T01:58:22.523Z,2.61
2023-01-31T02:00:51.345Z,2.62
2023-01-31T02:03:19.606Z,2.64
2023-01-31T02:05:49.355Z,2.66
2023-01-31T02:08:20.028Z,2.68
2023-01-31T02:10:53.569Z,2.70
2023-01-31T02:13:22.132Z,2.73
2023-01-31T02:15:50.072Z,2.75
2023-01-31T02:18:21.738Z,2.78
2023-01-31T02:21:14.387Z,2.80
2023-01-31T02:24:22.356Z,2.83
2023-01-31T02:27:21.054Z,2.86
2023-01-31T02:30:09.280Z,2.88
2023-01-31T02:36:23.543Z,2.89
2023-01-31T02:39:03.219Z,2.90
2023-01-31T02:41:51.855Z,2.91
2023-01-31T02:44:48.850Z,2.91
2023-01-31T02:47:55.933Z,2.91
2023-01-31T02:50:29.742Z,2.91
2023-01-31T02:53:08.610Z,2.92
2023-01-31T02:56:07.928Z,2.93
2023-01-31T02:58:39.586Z,2.93
2023-01-31T03:01:15.353Z,2.92
2023-01-31T03:03:43.823Z,2.92
2023-01-31T03:06:23.272Z,2.93
2023-01-31T03:09:28.479Z,2.95
2023-01-31T03:12:19.485Z,2.95
2023-01-31T03:15:05.959Z,2.95
2023-01-31T03:18:01.947Z,2.96
2023-01-31T03:20:44.713Z,2.96
2023-01-31T03:23:21.664Z,2.97
2023-01-31T03:25:51.436Z,2.98
2023-01-31T03:28:28.409Z,2.99
2023-01-31T03:31:01.914Z,2.99
2023-01-31T03:33:34.095Z,2.99
2023-01-31T03:36:20.946Z,2.99
2023-01-31T03:39:07.482Z,2.99
2023-01-31T03:41:54.119Z,2.98
2023-01-31T03:44:32.689Z,2.97
2023-01-31T03:47:13.564Z,2.96
2023-01-31T03:49:44.438Z,2.95
2023-01-31T03:52:18.911Z,2.95
2023-01-31T03:54:53.744Z,2.93
2023-01-31T03:57:25.443Z,2.91
2023-01-31T03:59:57.221Z,2.90
2023-01-31T04:02:52.081Z,2.88
2023-01-31T04:05:24.851Z,2.87
2023-01-31T04:07:55.246Z,2.85
2023-01-31T04:10:26.261Z,2.84
2023-01-31T04:12:54.592Z,2.81
2023-01-31T04:15:22.831Z,2.81
2023-01-31T04:17:50.899Z,2.79
2023-01-31T04:20:19.333Z,2.78
2023-01-31T04:22:47.405Z,2.77
2023-01-31T04:25:15.431Z,2.75
2023-01-31T04:27:44.365Z,2.73
2023-01-31T04:34:41.622Z,2.68
2023-01-31T04:37:10.029Z,2.68
2023-01-31T04:39:38.038Z,2.67
2023-01-31T04:42:06.080Z,2.67
2023-01-31T04:44:33.987Z,2.67
2023-01-31T04:47:01.919Z,2.68
2023-01-31T04:49:29.784Z,2.68
2023-01-31T04:51:57.721Z,2.68
2023-01-31T04:54:25.638Z,2.67
2023-01-31T04:56:53.534Z,2.67
2023-01-31T04:59:21.444Z,2.67
2023-01-31T05:01:49.452Z,2.68
2023-01-31T05:04:17.731Z,2.68
2023-01-31T05:06:46.615Z,2.67
2023-01-31T05:09:15.117Z,2.67
2023-01-31T05:11:44.385Z,2.67
2023-01-31T05:14:13.848Z,2.67
2023-01-31T05:16:44.594Z,2.67
2023-01-31T05:19:14.521Z,2.67
2023-01-31T05:21:55.404Z,2.68
2023-01-31T05:24:23.849Z,2.68
2023-01-31T05:26:54.050Z,2.69
2023-01-31T05:29:22.526Z,2.70
2023-01-31T05:31:52.408Z,2.71
2023-01-31T05:34:21.088Z,2.71
2023-01-31T05:36:49.182Z,2.71
2023-01-31T05:39:17.547Z,2.71
2023-01-31T05:41:45.459Z,2.70
2023-01-31T05:44:14.628Z,2.70
2023-01-31T05:46:42.779Z,2.69
2023-01-31T05:49:11.572Z,2.68
2023-01-31T05:51:41.006Z,2.67
2023-01-31T05:54:11.511Z,2.67
2023-01-31T05:56:39.631Z,2.66
2023-01-31T05:59:07.523Z,2.66
2023-01-31T06:01:35.417Z,2.65
2023-01-31T06:04:03.346Z,2.64
2023-01-31T06:06:31.213Z,2.63
2023-01-31T06:08:59.108Z,2.64
2023-01-31T06:11:26.982Z,2.63
2023-01-31T06:13:57.724Z,2.62
2023-01-31T06:16:26.440Z,2.61
2023-01-31T06:18:56.033Z,2.61
2023-01-31T06:21:23.996Z,2.61
2023-01-31T06:23:51.848Z,2.61
2023-01-31T06:26:19.745Z,2.61
2023-01-31T06:28:48.056Z,2.60
2023-01-31T06:31:16.105Z,2.59
2023-01-31T06:33:47.761Z,2.59
2023-01-31T06:36:19.317Z,2.57
2023-01-31T06:38:52.170Z,2.57
2023-01-31T06:41:20.617Z,2.56
2023-01-31T06:43:48.911Z,2.55
2023-01-31T06:46:17.679Z,2.53
2023-01-31T06:48:46.305Z,2.54
2023-01-31T06:51:15.651Z,2.53
2023-01-31T06:53:43.674Z,2.53
2023-01-31T06:56:11.740Z,2.53
2023-01-31T06:58:40.112Z,2.54
2023-01-31T07:01:10.237Z,2.54
2023-01-31T07:04:03.662Z,2.55
2023-01-31T07:06:31.637Z,2.57
2023-01-31T07:08:59.496Z,2.58
2023-01-31T07:11:27.419Z,2.58
2023-01-31T07:13:55.239Z,2.58
2023-01-31T07:16:25.435Z,2.59
2023-01-31T07:18:54.093Z,2.60
2023-01-31T07:21:23.973Z,2.61
2023-01-31T07:23:52.393Z,2.64
2023-01-31T07:26:20.326Z,2.67
2023-01-31T07:28:48.611Z,2.68
2023-01-31T07:31:16.694Z,2.71
2023-01-31T07:33:44.859Z,2.74
2023-01-31T07:36:15.304Z,2.77
2023-01-31T07:38:43.211Z,2.79
2023-01-31T07:41:11.897Z,2.80
2023-01-31T07:43:39.820Z,2.81
2023-01-31T07:46:11.003Z,2.82
2023-01-31T07:48:39.347Z,2.83
2023-01-31T07:51:07.818Z,2.84
2023-01-31T07:53:42.146Z,2.85
2023-01-31T07:56:14.186Z,2.84
2023-01-31T07:58:44.117Z,2.84
2023-01-31T08:01:40.313Z,2.84
2023-01-31T08:04:20.620Z,2.85
2023-01-31T08:06:54.030Z,2.87
2023-01-31T08:09:24.794Z,2.88
2023-01-31T08:11:53.403Z,2.89
2023-01-31T08:14:25.432Z,2.91
2023-01-31T08:16:53.853Z,2.93
2023-01-31T08:19:22.652Z,2.96
2023-01-31T08:21:50.495Z,2.99
2023-01-31T08:24:18.457Z,3.02
2023-01-31T08:26:46.820Z,3.06
2023-01-31T08:29:14.812Z,3.10
2023-01-31T08:31:42.848Z,3.13
2023-01-31T08:34:12.155Z,3.19
2023-01-31T08:36:40.155Z,3.24
2023-01-31T08:39:08.266Z,3.30
2023-01-31T08:41:37.627Z,3.39
2023-01-31T08:44:06.675Z,3.45
2023-01-31T08:46:36.520Z,3.48
2023-01-31T08:49:06.510Z,3.49
2023-01-31T08:51:34.574Z,3.50
2023-01-31T08:54:02.824Z,3.49
2023-01-31T08:56:31.261Z,3.46
2023-01-31T08:58:59.211Z,3.42
2023-01-31T09:01:27.664Z,3.34
2023-01-31T09:03:58.068Z,3.27
2023-01-31T09:06:27.609Z,3.24
2023-01-31T09:08:57.784Z,3.22
2023-01-31T09:11:30.149Z,3.19
2023-01-31T09:13:58.754Z,3.16
2023-01-31T09:16:26.805Z,3.14
2023-01-31T09:18:56.325Z,3.14
2023-01-31T09:21:24.799Z,3.16
2023-01-31T09:23:58.308Z,3.17
2023-01-31T09:26:26.616Z,3.18
2023-01-31T09:28:56.148Z,3.20
2023-01-31T09:31:24.173Z,3.20
2023-01-31T09:33:52.174Z,3.22
2023-01-31T09:36:22.577Z,3.24
2023-01-31T09:38:56.139Z,3.25
2023-01-31T09:41:52.077Z,3.24
2023-01-31T09:44:28.403Z,3.27
2023-01-31T09:47:07.135Z,3.31
2023-01-31T09:49:45.615Z,3.37
2023-01-31T09:52:13.594Z,3.40
2023-01-31T09:54:41.817Z,3.40
2023-01-31T09:57:13.594Z,3.42
2023-01-31T10:00:09.903Z,3.44
2023-01-31T10:02:47.241Z,3.46
2023-01-31T10:05:36.804Z,3.49
2023-01-31T10:08:32.148Z,3.54
2023-01-31T10:11:03.427Z,3.61
2023-01-31T10:13:39.699Z,3.65
2023-01-31T10:16:10.608Z,3.67
2023-01-31T10:18:46.600Z,3.68
2023-01-31T10:21:22.743Z,3.68
2023-01-31T10:24:29.349Z,3.70
2023-01-31T10:27:04.224Z,3.72
2023-01-31T10:29:37.762Z,3.76
2023-01-31T10:32:20.823Z,3.85
2023-01-31T10:34:57.831Z,3.93
2023-01-31T10:37:44.327Z,3.99
2023-01-31T10:40:20.011Z,4.02
2023-01-31T10:42:55.219Z,4.05
2023-01-31T10:45:31.071Z,4.10
2023-01-31T10:48:15.627Z,4.12
2023-01-31T10:50:53.884Z,4.16
2023-01-31T10:53:53.074Z,4.20
2023-01-31T10:56:26.753Z,4.21
2023-01-31T10:58:56.702Z,4.24
2023-01-31T11:04:41.501Z,4.29
2023-01-31T11:07:10.753Z,4.34
2023-01-31T11:09:42.831Z,4.38
2023-01-31T11:12:10.648Z,4.37
2023-01-31T11:14:39.251Z,4.32
2023-01-31T11:17:14.982Z,4.25
2023-01-31T11:19:50.761Z,4.14
2023-01-31T11:22:25.865Z,4.06
2023-01-31T11:24:56.495Z,4.00
2023-01-31T11:27:27.889Z,3.94
2023-01-31T11:30:00.135Z,3.94
2023-01-31T11:32:32.182Z,3.97
2023-01-31T11:35:03.687Z,3.99
2023-01-31T11:37:34.850Z,4.01
2023-01-31T11:40:27.001Z,4.05
2023-01-31T11:42:57.435Z,4.08
2023-01-31T11:45:37.465Z,4.12
2023-01-31T11:48:16.462Z,4.14
2023-01-31T11:50:50.858Z,4.18
2023-01-31T11:53:47.936Z,4.16
2023-01-31T11:56:30.924Z,4.18
2023-01-31T11:59:09.759Z,4.20
2023-01-31T12:01:47.519Z,4.23
2023-01-31T12:04:25.050Z,4.26
2023-01-31T12:07:06.337Z,4.28
2023-01-31T12:09:44.139Z,4.30
2023-01-31T12:12:35.041Z,4.35
2023-01-31T12:15:13.255Z,4.40
2023-01-31T12:17:48.793Z,4.40
2023-01-31T12:20:28.532Z,4.39
2023-01-31T12:23:05.972Z,4.34
2023-01-31T12:25:33.765Z,4.26
2023-01-31T12:28:28.035Z,4.18
2023-01-31T12:31:21.130Z,4.13
2023-01-31T12:34:06.313Z,4.09
2023-01-31T12:36:47.557Z,4.06
2023-01-31T12:39:28.145Z,4.02
2023-01-31T12:42:14.530Z,3.98
2023-01-31T12:44:50.459Z,3.93
2023-01-31T12:47:31.112Z,3.87
2023-01-31T12:50:20.959Z,3.84
2023-01-31T12:53:10.265Z,3.84
2023-01-31T12:56:00.134Z,3.85
2023-01-31T12:58:47.600Z,3.89
2023-01-31T13:01:22.327Z,3.91
2023-01-31T13:04:18.182Z,3.90
2023-01-31T13:06:53.810Z,3.88
2023-01-31T13:09:27.123Z,3.87
2023-01-31T13:12:15.839Z,3.86
2023-01-31T13:15:14.440Z,3.90
2023-01-31T13:17:43.886Z,3.94
2023-01-31T13:20:51.402Z,3.93
2023-01-31T13:23:31.659Z,3.87
2023-01-31T13:26:12.097Z,3.83
2023-01-31T13:28:48.978Z,3.81
2023-01-31T13:31:47.393Z,3.78
2023-01-31T13:34:38.007Z,3.73
2023-01-31T13:37:14.508Z,3.67
2023-01-31T13:39:48.747Z,3.61
2023-01-31T13:42:18.214Z,3.53
2023-01-31T13:44:48.744Z,3.47
2023-01-31T13:47:23.779Z,3.43
2023-01-31T13:50:20.359Z,3.39
2023-01-31T13:52:54.472Z,3.36
2023-01-31T13:55:40.999Z,3.33
2023-01-31T13:58:30.248Z,3.31
2023-01-31T14:01:18.273Z,3.30
2023-01-31T14:04:11.533Z,3.27
2023-01-31T14:07:07.418Z,3.23
2023-01-31T14:09:37.416Z,3.18
2023-01-31T14:12:17.612Z,3.13
2023-01-31T14:14:48.067Z,3.08
2023-01-31T14:17:22.054Z,3.07
2023-01-31T14:19:49.962Z,3.06
2023-01-31T14:22:20.642Z,3.05
2023-01-31T14:24:56.765Z,3.05
2023-01-31T14:27:38.746Z,3.04
2023-01-31T14:30:06.659Z,3.03
2023-01-31T14:33:07.838Z,3.03
2023-01-31T14:35:46.820Z,3.03
2023-01-31T14:38:25.792Z,3.02
2023-01-31T14:41:09.960Z,3.02
2023-01-31T14:43:55.514Z,3.01
2023-01-31T14:46:35.192Z,2.98
2023-01-31T14:49:21.610Z,2.97
2023-01-31T14:52:04.714Z,2.95
2023-01-31T14:54:41.691Z,2.92
2023-01-31T14:57:12.768Z,2.90
2023-01-31T14:59:52.890Z,2.88
2023-01-31T15:02:23.844Z,2.86
2023-01-31T15:05:02.155Z,2.84
2023-01-31T15:07:30.188Z,2.82
2023-01-31T15:09:58.299Z,2.79
2023-01-31T15:12:56.045Z,2.76
2023-01-31T15:15:26.642Z,2.72
2023-01-31T15:17:57.526Z,2.70
2023-01-31T15:20:43.265Z,2.67
2023-01-31T15:23:20.234Z,2.67
2023-01-31T15:25:50.697Z,2.67
2023-01-31T15:28:25.290Z,2.65
2023-01-31T15:30:56.424Z,2.64
2023-01-31T15:33:41.532Z,2.63
2023-01-31T15:36:44.939Z,2.61
2023-01-31T15:39:25.180Z,2.60
2023-01-31T15:41:53.374Z,2.59
2023-01-31T15:44:27.633Z,2.57
2023-01-31T15:46:58.394Z,2.55
2023-01-31T15:49:38.490Z,2.53
2023-01-31T15:52:07.759Z,2.50
2023-01-31T15:54:36.757Z,2.48
2023-01-31T15:57:05.859Z,2.45
2023-01-31T15:59:34.394Z,2.41
2023-01-31T16:02:04.850Z,2.38
2023-01-31T16:04:32.900Z,2.34
2023-01-31T16:07:00.975Z,2.33
2023-01-31T16:09:33.751Z,2.32
2023-01-31T16:12:02.640Z,2.29
2023-01-31T16:14:30.862Z,2.26
2023-01-31T16:16:59.990Z,2.22
2023-01-31T16:19:31.074Z,2.17
2023-01-31T16:21:59.722Z,2.14
2023-01-31T16:24:28.056Z,2.11
2023-01-31T16:27:00.283Z,2.09
2023-01-31T16:29:46.046Z,2.06
2023-01-31T16:32:42.025Z,2.04
2023-01-31T16:35:29.923Z,2.02
2023-01-31T16:38:04.808Z,2.00
2023-01-31T16:40:37.211Z,2.00
2023-01-31T16:43:24.723Z,1.99
2023-01-31T16:46:04.325Z,1.99
2023-01-31T16:48:37.946Z,1.98
2023-01-31T16:51:42.531Z,1.97
2023-01-31T16:54:31.373Z,1.98
2023-01-31T16:57:01.986Z,1.98
2023-01-31T16:59:38.881Z,1.99
2023-01-31T17:02:16.773Z,1.99
2023-01-31T17:04:46.672Z,1.99
2023-01-31T17:07:20.263Z,1.99
2023-01-31T17:09:49.556Z,1.99
2023-01-31T17:12:22.296Z,2.00
2023-01-31T17:14:57.061Z,2.00
2023-01-31T17:17:32.800Z,1.99
2023-01-31T17:20:01.189Z,1.99
2023-01-31T17:22:29.794Z,1.99
2023-01-31T17:24:57.747Z,2.00
2023-01-31T17:27:31.640Z,2.01
2023-01-31T17:29:59.477Z,2.01
2023-01-31T17:32:27.644Z,2.01
2023-01-31T17:34:55.485Z,2.01
2023-01-31T17:37:30.288Z,2.02
2023-01-31T17:39:59.849Z,2.03
2023-01-31T17:42:27.937Z,2.04
2023-01-31T17:44:56.388Z,2.05
2023-01-31T17:47:25.241Z,2.05
2023-01-31T17:49:54.591Z,2.06
2023-01-31T17:52:23.811Z,2.07
2023-01-31T17:54:52.331Z,2.07
2023-01-31T17:57:20.152Z,2.08
2023-01-31T17:59:48.378Z,2.08
2023-01-31T18:02:16.339Z,2.08
2023-01-31T18:04:44.296Z,2.08
2023-01-31T18:07:15.539Z,2.09
2023-01-31T18:09:43.530Z,2.10
2023-01-31T18:12:11.814Z,2.11
2023-01-31T18:14:39.741Z,2.13
2023-01-31T18:17:07.601Z,2.15
2023-01-31T18:19:35.740Z,2.14
2023-01-31T18:22:03.616Z,2.13
2023-01-31T18:24:31.875Z,2.11
2023-01-31T18:26:59.881Z,2.10
2023-01-31T18:29:27.925Z,2.09
2023-01-31T18:31:57.917Z,2.10
2023-01-31T18:34:25.942Z,2.10
2023-01-31T18:36:53.937Z,2.10
2023-01-31T18:39:22.260Z,2.11
2023-01-31T18:41:50.398Z,2.13
2023-01-31T18:44:18.427Z,2.13
2023-01-31T18:46:46.387Z,2.13
2023-01-31T18:49:15.900Z,2.13
2023-01-31T18:51:44.102Z,2.12
2023-01-31T18:54:12.209Z,2.10
2023-01-31T18:56:40.112Z,2.07
2023-01-31T18:59:14.248Z,2.06
2023-01-31T19:04:38.191Z,1.99
2023-01-31T19:07:06.717Z,1.98
2023-01-31T19:09:35.460Z,1.96
2023-01-31T19:12:03.650Z,1.95
2023-01-31T19:14:31.599Z,1.94
2023-01-31T19:16:59.611Z,1.93
2023-01-31T19:19:27.536Z,1.92
2023-01-31T19:21:56.585Z,1.92
2023-01-31T19:24:24.465Z,1.92
2023-01-31T19:26:52.595Z,1.93
2023-01-31T19:29:20.621Z,1.94
2023-01-31T19:31:48.568Z,1.95
2023-01-31T19:34:16.616Z,1.95
2023-01-31T19:36:46.779Z,1.95
2023-01-31T19:39:15.275Z,1.95
2023-01-31T19:41:43.354Z,1.95
2023-01-31T19:44:11.837Z,1.95
2023-01-31T19:46:39.970Z,1.95
2023-01-31T19:49:07.789Z,1.96
2023-01-31T19:51:35.900Z,1.98
2023-01-31T19:54:03.945Z,2.00
2023-01-31T19:56:32.300Z,2.03
2023-01-31T19:59:00.821Z,2.06
2023-01-31T20:01:28.786Z,2.08
2023-01-31T20:03:58.194Z,2.09
2023-01-31T20:06:29.466Z,2.11
2023-01-31T20:09:00.069Z,2.13
2023-01-31T20:11:29.344Z,2.15
2023-01-31T20:14:00.842Z,2.17
2023-01-31T20:16:28.988Z,2.19
2023-01-31T20:18:57.505Z,2.20
2023-01-31T20:21:25.797Z,2.21
2023-01-31T20:23:54.100Z,2.23
2023-01-31T20:26:24.196Z,2.23
2023-01-31T20:28:52.584Z,2.25
2023-01-31T20:31:21.102Z,2.26
2023-01-31T20:33:54.836Z,2.27
2023-01-31T20:36:25.713Z,2.28
2023-01-31T20:38:54.234Z,2.29
2023-01-31T20:41:22.657Z,2.29
2023-01-31T20:43:50.729Z,2.30
2023-01-31T20:46:19.550Z,2.30
2023-01-31T20:48:48.233Z,2.30
2023-01-31T20:51:16.538Z,2.30
2023-01-31T20:53:45.136Z,2.29
2023-01-31T20:56:14.348Z,2.29
2023-01-31T20:58:43.827Z,2.29
2023-01-31T21:01:12.691Z,2.29
2023-01-31T21:03:40.711Z,2.30
2023-01-31T21:06:09.048Z,2.32
2023-01-31T21:08:37.291Z,2.33
2023-01-31T21:11:08.587Z,2.35
2023-01-31T21:13:37.308Z,2.35
2023-01-31T21:16:07.739Z,2.36
2023-01-31T21:18:38.116Z,2.36
2023-01-31T21:21:09.072Z,2.37
2023-01-31T21:23:39.032Z,2.37
2023-01-31T21:26:10.883Z,2.37
2023-01-31T21:28:43.635Z,2.37
2023-01-31T21:31:16.895Z,2.38
2023-01-31T21:33:50.796Z,2.37
2023-01-31T21:36:21.959Z,2.37
2023-01-31T21:38:51.274Z,2.37
2023-01-31T21:41:38.054Z,2.38
2023-01-31T21:44:07.222Z,2.37
2023-01-31T21:46:35.478Z,2.34
2023-01-31T21:49:03.936Z,2.31
2023-01-31T21:51:31.881Z,2.24
2023-01-31T21:53:59.884Z,2.16
2023-01-31T21:56:30.896Z,2.06
2023-01-31T21:58:59.116Z,1.97
2023-01-31T22:01:29.958Z,1.90
2023-01-31T22:03:59.970Z,1.85
2023-01-31T22:06:35.414Z,1.82
2023-01-31T22:09:04.885Z,1.81
2023-01-31T22:11:34.708Z,1.80
2023-01-31T22:14:07.167Z,1.80
2023-01-31T22:16:36.114Z,1.81
2023-01-31T22:19:04.992Z,1.84
2023-01-31T22:21:36.326Z,1.85
2023-01-31T22:24:06.660Z,1.88
2023-01-31T22:26:40.724Z,1.90
2023-01-31T22:29:11.816Z,1.93
2023-01-31T22:31:40.968Z,1.96
2023-01-31T22:34:12.983Z,1.99
2023-01-31T22:36:42.200Z,2.01
2023-01-31T22:39:13.417Z,2.02
2023-01-31T22:41:42.257Z,2.05
2023-01-31T22:44:10.674Z,2.07
2023-01-31T22:46:38.725Z,2.09
2023-01-31T22:49:06.824Z,2.12
2023-01-31T22:51:34.676Z,2.15
2023-01-31T22:54:02.757Z,2.18
2023-01-31T22:56:31.780Z,2.21
2023-01-31T22:59:01.916Z,2.24
2023-01-31T23:01:36.297Z,2.27
2023-01-31T23:04:07.390Z,2.29
2023-01-31T23:06:37.746Z,2.31
2023-01-31T23:09:07.223Z,2.34
2023-01-31T23:11:35.180Z,2.37
2023-01-31T23:14:03.632Z,2.40
2023-01-31T23:16:50.175Z,2.44
2023-01-31T23:19:18.252Z,2.49
2023-01-31T23:21:46.343Z,2.53
2023-01-31T23:24:15.093Z,2.57
2023-01-31T23:26:43.610Z,2.61
2023-01-31T23:29:12.146Z,2.65
2023-01-31T23:31:40.364Z,2.69
2023-01-31T23:34:09.683Z,2.72
2023-01-31T23:36:37.614Z,2.73
2023-01-31T23:39:06.078Z,2.73
2023-01-31T23:41:34.073Z,2.71
2023-01-31T23:44:02.005Z,2.67
2023-01-31T23:46:29.894Z,2.63
2023-01-31T23:48:57.812Z,2.60
2023-01-31T23:51:28.507Z,2.59
2023-01-31T23:53:56.484Z,2.57
2023-01-31T23:56:24.403Z,2.56
2023-01-31T23:58:53.889Z,2.56
